Airport View

Enter AWOS ICAO identifier for current METAR.

ex. KFNL

KHOB 051325Z AUTO 17010KT 10SM CLR 24/13 A3005 RMK AO2

5 Aug 2020 13:28

Frequency: 119.75

Phone: 575-393-8418

Other Area AWOS: KGNC - KE11 - KINK - KCNM

TAF KHOB 051120Z 0512/0612 17011KT P6SM SKC